Time;durP1;ratioP1;P1;durP2;ratioP2;P2;SDS_P1;SDS_P2;PMS_P1;PMS_P2;Temp;Humidity;BMP_temperature;BMP_pressure;BME280_temperature;BME280_humidity;BME280_pressure;Samples;Min_cycle;Max_cycle;Signal;HPM_P1;HPM_P2
2023/03/07 00:01:54;;;;;;;;;;;7.30;84.50;;;6.07;69.80;98861.25;4992876;28;19925;-86
2023/03/07 00:04:23;;;;;;;;;;;7.30;84.90;;;6.07;69.93;98866.53;5001439;28;20420;-86
2023/03/07 00:06:50;;;;;;;;;;;7.30;85.10;;;6.07;70.04;98863.88;5020734;28;19929;-86
2023/03/07 00:09:17;;;;;;;;;;;7.30;85.40;;;6.06;70.20;98848.25;4998919;28;19929;-86
2023/03/07 00:11:44;;;;;;;;;;;7.30;85.30;;;6.03;70.52;98860.06;5032101;28;19932;-87
2023/03/07 00:14:11;;;;;;;;;;;7.30;85.50;;;6.06;70.26;98856.19;5050601;28;19929;-86
2023/03/07 00:16:38;;;;;;;;;;;7.30;85.60;;;6.08;70.37;98862.84;5022627;28;19939;-86
2023/03/07 00:19:06;;;;;;;;;;;7.30;85.80;;;6.11;70.70;98865.06;5020759;28;19977;-86
2023/03/07 00:21:35;;;;;;;;;;;7.30;85.90;;;6.13;70.25;98848.97;5019610;28;19929;-86
2023/03/07 00:24:03;;;;;;;;;;;7.30;85.70;;;6.13;70.83;98851.59;5022082;28;20023;-86
2023/03/07 00:26:30;;;;;;;;;;;7.40;85.70;;;6.09;71.12;98848.59;5042950;28;20336;-86
2023/03/07 00:28:57;;;;;;;;;;;7.30;86.10;;;6.11;71.02;98845.75;5017702;28;19955;-86
2023/03/07 00:31:24;;;;;;;;;;;7.30;86.20;;;6.09;71.06;98848.59;5027531;28;19933;-86
2023/03/07 00:33:52;;;;;;;;;;;7.30;86.10;;;6.21;70.63;98846.03;5013657;28;19937;-86
2023/03/07 00:36:20;;;;;;;;;;;7.40;85.90;;;6.15;71.00;98839.78;5025152;28;19939;-86
2023/03/07 00:38:49;;;;;;;;;;;7.40;86.10;;;6.11;71.06;98846.53;5019610;28;20027;-86
2023/03/07 00:41:19;;;;;;;;;;;7.30;86.30;;;6.10;71.28;98846.75;5044349;28;19979;-86
2023/03/07 00:43:46;;;;;;;;;;;7.30;86.50;;;6.15;70.64;98849.56;5017514;28;19988;-87
2023/03/07 00:46:17;;;;;;;;;;;7.30;86.30;;;6.19;70.65;98835.63;5016128;28;19929;-87
2023/03/07 00:48:44;;;;;;;;;;;7.30;86.10;;;6.16;71.07;98840.59;5018492;28;19929;-86
2023/03/07 00:51:14;;;;;;;;;;;7.30;86.50;;;6.10;71.23;98834.34;5037436;28;19951;-86
2023/03/07 00:53:41;;;;;;;;;;;7.30;86.50;;;5.97;71.93;98839.78;5039787;28;19928;-86
2023/03/07 00:56:13;;;;;;;;;;;7.30;86.70;;;6.06;71.51;98838.47;5022003;28;19968;-87
2023/03/07 00:58:42;;;;;;;;;;;7.30;86.70;;;6.04;71.89;98832.56;5011281;28;19928;-86
2023/03/07 01:01:09;;;;;;;;;;;7.20;86.90;;;5.98;71.99;98825.53;5032322;28;19936;-87
2023/03/07 01:03:37;;;;;;;;;;;7.20;87.10;;;5.97;72.24;98834.50;5006393;28;19974;-87
2023/03/07 01:06:06;;;;;;;;;;;7.10;87.30;;;6.00;72.13;98835.88;5018983;28;20274;-87
2023/03/07 01:08:33;;;;;;;;;;;7.20;87.10;;;6.01;72.36;98834.88;5029533;28;19937;-86
2023/03/07 01:11:02;;;;;;;;;;;7.20;87.40;;;5.98;72.56;98824.72;5020632;28;19932;-87
2023/03/07 01:13:32;;;;;;;;;;;7.10;87.40;;;5.99;72.48;98831.63;5028018;28;19960;-86
2023/03/07 01:16:07;;;;;;;;;;;7.20;87.60;;;6.01;72.76;98824.28;5011336;28;19929;-87
2023/03/07 01:18:34;;;;;;;;;;;7.40;87.70;;;6.09;72.27;98826.59;5012349;28;19953;-87
2023/03/07 01:21:01;;;;;;;;;;;7.20;87.30;;;6.11;71.92;98822.72;5017883;28;20347;-86
2023/03/07 01:23:28;;;;;;;;;;;7.30;87.40;;;6.06;72.12;98816.50;5036666;28;20467;-86
2023/03/07 01:25:55;;;;;;;;;;;7.20;87.30;;;6.06;72.29;98816.50;5019608;28;20559;-87
2023/03/07 01:28:23;;;;;;;;;;;7.20;87.50;;;6.09;72.33;98818.66;5016684;28;20378;-87
2023/03/07 01:30:58;;;;;;;;;;;7.20;87.40;;;6.08;72.16;98809.94;5049351;28;20381;-87
2023/03/07 01:33:25;;;;;;;;;;;7.30;87.50;;;6.14;72.17;98810.88;5025825;28;19957;-87
2023/03/07 01:35:52;;;;;;;;;;;7.30;87.40;;;6.17;72.20;98819.19;5022004;28;19929;-87
2023/03/07 01:38:19;;;;;;;;;;;7.30;87.40;;;6.21;72.24;98803.66;5017833;28;19937;-86
2023/03/07 01:40:47;;;;;;;;;;;7.30;87.30;;;6.23;71.93;98812.19;5015707;28;19971;-87
2023/03/07 01:43:25;;;;;;;;;;;7.30;87.30;;;6.13;71.91;98803.97;5037184;28;20558;-87
2023/03/07 01:46:34;;;;;;;;;;;7.30;87.90;;;6.15;72.40;98804.56;5017522;28;20552;-86
2023/03/07 01:49:06;;;;;;;;;;;7.30;87.80;;;6.16;72.63;98799.03;5015796;28;19972;-87
2023/03/07 01:51:34;;;;;;;;;;;7.30;87.70;;;5.98;73.03;98793.78;5019889;28;20015;-87
2023/03/07 01:54:04;;;;;;;;;;;7.20;88.10;;;5.82;74.18;98802.28;5018600;28;20308;-87
2023/03/07 01:56:31;;;;;;;;;;;7.10;88.60;;;5.82;74.09;98807.59;5021192;28;19929;-86
2023/03/07 01:58:58;;;;;;;;;;;7.10;88.50;;;5.80;74.61;98794.56;5031672;28;20342;-86
2023/03/07 02:01:26;;;;;;;;;;;7.10;88.90;;;5.75;75.31;98805.00;5036851;28;20408;-87
2023/03/07 02:03:58;;;;;;;;;;;7.10;89.40;;;5.77;74.99;98792.38;5033006;28;19933;-86
2023/03/07 02:06:27;;;;;;;;;;;7.00;89.10;;;5.77;75.11;98797.66;5021830;28;19988;-87
2023/03/07 02:08:55;;;;;;;;;;;7.00;89.20;;;5.79;74.87;98798.22;4997058;28;19936;-87
2023/03/07 02:11:22;;;;;;;;;;;7.00;89.30;;;5.73;75.19;98782.44;5009176;28;20030;-87
2023/03/07 02:13:49;;;;;;;;;;;7.00;89.30;;;5.78;74.79;98774.66;5001304;28;19929;-86
2023/03/07 02:16:16;;;;;;;;;;;7.00;89.10;;;5.80;74.95;98776.03;5001963;28;19935;-87
2023/03/07 02:18:44;;;;;;;;;;;7.00;89.20;;;5.83;74.91;98764.22;5019495;28;19935;-86
2023/03/07 02:21:19;;;;;;;;;;;7.00;89.30;;;5.82;75.01;98765.25;5006787;28;20492;-87
2023/03/07 02:23:51;;;;;;;;;;;7.00;89.50;;;5.85;74.68;98764.78;5030318;28;20019;-87
2023/03/07 02:26:22;;;;;;;;;;;7.00;89.50;;;5.87;74.78;98757.47;5022663;28;20003;-87
2023/03/07 02:28:51;;;;;;;;;;;7.00;89.50;;;5.84;74.94;98760.53;5031659;28;19936;-87
2023/03/07 02:31:18;;;;;;;;;;;7.00;89.50;;;5.91;74.64;98756.00;5006056;28;19960;-87
2023/03/07 02:33:45;;;;;;;;;;;7.00;89.30;;;6.02;74.32;98757.09;5007424;28;19979;-86
2023/03/07 02:36:15;;;;;;;;;;;7.10;89.10;;;6.11;73.82;98745.97;5020372;28;19929;-87
2023/03/07 02:38:51;;;;;;;;;;;7.20;88.80;;;6.08;73.33;98751.69;5009582;28;20042;-86
2023/03/07 02:41:20;;;;;;;;;;;7.20;88.50;;;6.06;73.74;98748.50;5020777;28;19933;-87
2023/03/07 02:43:47;;;;;;;;;;;7.20;88.80;;;6.08;73.73;98745.59;5015096;28;20297;-86
2023/03/07 02:46:16;;;;;;;;;;;7.20;88.80;;;6.13;73.16;98740.44;5019387;28;19925;-87
2023/03/07 02:48:43;;;;;;;;;;;7.30;88.60;;;6.13;73.63;98749.19;5035628;28;20024;-87
2023/03/07 02:51:11;;;;;;;;;;;7.30;88.50;;;6.19;72.91;98740.34;5017177;28;19935;-87
2023/03/07 02:53:38;;;;;;;;;;;7.30;88.30;;;6.16;72.67;98732.88;5007877;28;19936;-87
2023/03/07 02:56:06;;;;;;;;;;;7.30;88.10;;;6.22;72.88;98730.34;5021175;28;20024;-87
2023/03/07 02:58:33;;;;;;;;;;;7.30;88.10;;;6.21;72.79;98734.84;5020933;28;19929;-87
2023/03/07 03:01:00;;;;;;;;;;;7.40;87.90;;;6.16;72.85;98726.78;5025392;28;19968;-87
2023/03/07 03:03:30;;;;;;;;;;;7.40;87.90;;;6.22;72.60;98736.44;5021158;28;19955;-86
2023/03/07 03:05:57;;;;;;;;;;;7.40;87.70;;;6.20;72.49;98733.25;5044746;28;20407;-87
2023/03/07 03:08:24;;;;;;;;;;;7.40;87.80;;;6.15;72.81;98731.25;5013643;28;19936;-86
2023/03/07 03:10:52;;;;;;;;;;;7.40;87.70;;;6.05;72.92;98735.47;5026469;28;19935;-87
2023/03/07 03:13:21;;;;;;;;;;;7.30;87.90;;;6.02;73.26;98738.56;5031490;28;19929;-87
2023/03/07 03:15:48;;;;;;;;;;;7.30;88.10;;;5.97;73.15;98738.44;5021165;28;19976;-87
2023/03/07 03:18:16;;;;;;;;;;;7.20;88.30;;;6.00;73.34;98738.78;5021597;28;19972;-86
2023/03/07 03:20:44;;;;;;;;;;;7.20;88.40;;;6.01;73.37;98739.63;5021657;28;20460;-87
2023/03/07 03:23:11;;;;;;;;;;;7.20;88.40;;;5.95;73.71;98738.63;5041097;28;19929;-86
2023/03/07 03:25:38;;;;;;;;;;;7.20;88.50;;;5.91;74.24;98733.00;5017669;28;19929;-87
2023/03/07 03:28:06;;;;;;;;;;;7.20;88.60;;;6.00;73.70;98738.78;5019589;28;19929;-86
2023/03/07 03:30:34;;;;;;;;;;;7.20;88.50;;;6.02;73.56;98725.34;5023317;28;19935;-86
2023/03/07 03:33:02;;;;;;;;;;;7.20;88.40;;;6.02;73.63;98723.50;5020355;28;19936;-87
2023/03/07 03:35:32;;;;;;;;;;;7.30;88.50;;;6.02;73.34;98720.06;5014259;28;19939;-86
2023/03/07 03:38:00;;;;;;;;;;;7.20;88.40;;;6.04;73.37;98724.06;5023187;28;19968;-85
2023/03/07 03:40:27;;;;;;;;;;;7.20;88.30;;;6.07;73.21;98712.25;5022699;28;20027;-87
2023/03/07 03:42:55;;;;;;;;;;;7.20;88.30;;;6.09;73.11;98715.47;5024055;28;19966;-87
2023/03/07 03:45:25;;;;;;;;;;;7.20;88.20;;;6.12;72.98;98712.38;5020343;28;19960;-87
2023/03/07 03:47:52;;;;;;;;;;;7.20;88.30;;;6.14;73.01;98713.75;5030042;23;19925;-78
2023/03/07 03:50:19;;;;;;;;;;;7.30;88.30;;;6.17;72.67;98713.31;5028817;28;19944;-79
2023/03/07 03:52:46;;;;;;;;;;;7.30;88.30;;;6.15;72.75;98715.38;5029571;28;20336;-79
2023/03/07 03:55:14;;;;;;;;;;;7.30;88.20;;;6.16;72.93;98710.91;5039688;28;19933;-79
2023/03/07 03:57:42;;;;;;;;;;;7.30;88.20;;;6.22;72.58;98709.19;5032799;28;19932;-78
2023/03/07 04:00:13;;;;;;;;;;;7.30;88.10;;;6.09;73.73;98707.53;5025805;28;19980;-77
2023/03/07 04:02:40;;;;;;;;;;;7.30;88.40;;;6.09;73.53;98707.53;5029809;28;20348;-77
2023/03/07 04:05:11;;;;;;;;;;;7.50;88.60;;;6.06;73.43;98700.84;5007194;28;19929;-77
2023/03/07 04:07:38;;;;;;;;;;;7.20;88.60;;;6.09;73.71;98700.38;5024723;28;20353;-76
2023/03/07 04:10:07;;;;;;;;;;;7.20;88.70;;;6.14;73.32;98702.34;5007544;28;19929;-77
2023/03/07 04:12:36;;;;;;;;;;;7.30;88.70;;;6.16;73.04;98693.16;5009433;28;19935;-77
2023/03/07 04:15:06;;;;;;;;;;;7.30;88.60;;;6.07;73.87;98691.88;5024732;28;19929;-77
2023/03/07 04:17:33;;;;;;;;;;;7.20;88.70;;;6.12;73.64;98688.56;5007493;28;19960;-78
2023/03/07 04:20:00;;;;;;;;;;;7.30;88.60;;;6.15;73.17;98685.47;5011888;28;19929;-78
2023/03/07 04:22:27;;;;;;;;;;;7.30;88.60;;;6.13;73.51;98685.69;5014959;28;19933;-78
2023/03/07 04:24:54;;;;;;;;;;;7.30;88.50;;;6.14;73.07;98679.34;5023112;28;20028;-78
2023/03/07 04:27:22;;;;;;;;;;;7.30;88.50;;;6.21;72.93;98675.81;5024669;28;19929;-77
2023/03/07 04:29:50;;;;;;;;;;;7.30;88.40;;;6.21;72.80;98675.81;5025900;28;19987;-77
2023/03/07 04:32:20;;;;;;;;;;;7.30;88.20;;;6.15;72.86;98664.28;5007415;28;19925;-78
2023/03/07 04:34:49;;;;;;;;;;;7.30;88.20;;;6.07;73.54;98669.91;5025663;28;20308;-77
2023/03/07 04:37:16;;;;;;;;;;;7.30;88.30;;;6.07;73.41;98667.25;5022179;28;19933;-77
2023/03/07 04:39:43;;;;;;;;;;;7.20;88.40;;;6.11;73.48;98661.28;5023979;28;19925;-77
2023/03/07 04:42:11;;;;;;;;;;;7.20;88.40;;;6.12;73.49;98659.44;5017212;28;20293;-78
2023/03/07 04:44:38;;;;;;;;;;;7.20;88.30;;;6.10;73.38;98657.03;5023252;28;19926;-77
2023/03/07 04:47:06;;;;;;;;;;;7.20;88.40;;;6.05;73.44;98656.06;5023043;28;19968;-77
2023/03/07 04:49:35;;;;;;;;;;;7.20;88.60;;;6.06;73.49;98650.56;5022030;28;19926;-77
2023/03/07 04:52:05;;;;;;;;;;;7.20;88.60;;;6.03;73.88;98648.38;5022118;28;19988;-77
2023/03/07 04:54:32;;;;;;;;;;;7.20;88.70;;;5.90;74.45;98653.81;5030458;28;20394;-77
2023/03/07 04:57:01;;;;;;;;;;;7.20;88.80;;;5.91;74.03;98636.94;5016053;28;19930;-78
2023/03/07 04:59:28;;;;;;;;;;;7.20;88.90;;;5.79;74.50;98641.38;5008876;28;19929;-77
2023/03/07 05:01:55;;;;;;;;;;;7.10;89.10;;;5.87;74.26;98641.06;5010863;28;19925;-77
2023/03/07 05:04:24;;;;;;;;;;;7.10;89.10;;;5.85;74.46;98637.81;5020567;28;19925;-77
2023/03/07 05:06:51;;;;;;;;;;;7.10;89.30;;;5.86;74.43;98634.97;5000091;28;19925;-79
2023/03/07 05:09:18;;;;;;;;;;;7.10;89.20;;;5.87;74.58;98635.78;5009255;28;20005;-79
2023/03/07 05:11:45;;;;;;;;;;;7.10;89.20;;;5.78;74.59;98631.81;5023647;28;20404;-78
2023/03/07 05:14:13;;;;;;;;;;;7.00;89.30;;;5.76;75.04;98639.16;5024658;28;19933;-78
2023/03/07 05:16:40;;;;;;;;;;;7.00;89.50;;;5.81;74.70;98634.03;5007106;28;19929;-78
2023/03/07 05:19:07;;;;;;;;;;;7.00;89.40;;;5.84;74.66;98631.72;5007985;28;19983;-77
2023/03/07 05:21:38;;;;;;;;;;;7.00;89.30;;;5.84;74.53;98623.78;5009179;28;20567;-77
2023/03/07 05:24:06;;;;;;;;;;;7.00;89.30;;;5.79;74.66;98621.00;5015481;28;20291;-78
2023/03/07 05:26:34;;;;;;;;;;;7.00;89.30;;;5.83;74.95;98619.53;5006486;28;19925;-78
2023/03/07 05:29:01;;;;;;;;;;;7.00;89.30;;;5.89;74.36;98617.81;5005917;28;20309;-78
2023/03/07 05:31:28;;;;;;;;;;;7.10;89.30;;;5.97;74.08;98620.19;5007151;28;19999;-78
2023/03/07 05:33:55;;;;;;;;;;;7.10;89.20;;;5.92;73.96;98610.28;5022946;28;20648;-78
2023/03/07 05:36:22;;;;;;;;;;;7.10;89.10;;;5.76;75.11;98618.84;5008350;28;19936;-78
2023/03/07 05:38:52;;;;;;;;;;;7.00;89.30;;;5.81;74.75;98618.16;5022772;28;19987;-82
2023/03/07 05:41:19;;;;;;;;;;;7.00;89.20;;;5.82;75.05;98615.28;5019559;28;19929;-85
2023/03/07 05:43:46;;;;;;;;;;;7.00;89.30;;;5.81;74.59;98613.69;5021808;28;20312;-81
2023/03/07 05:46:13;;;;;;;;;;;7.00;89.20;;;5.84;74.94;98612.41;5021252;28;19991;-80
2023/03/07 05:48:40;;;;;;;;;;;7.00;89.60;;;5.88;74.85;98613.56;5022079;28;19934;-79
2023/03/07 05:51:07;;;;;;;;;;;7.00;89.50;;;5.85;74.54;98611.38;5008360;28;19953;-79
2023/03/07 05:53:34;;;;;;;;;;;7.00;89.50;;;5.92;74.60;98612.13;5022665;28;19930;-79
2023/03/07 05:56:03;;;;;;;;;;;7.10;89.40;;;5.93;74.30;98605.78;5020219;28;19969;-79
2023/03/07 05:58:30;;;;;;;;;;;7.10;89.30;;;5.93;74.48;98608.44;5011702;28;19933;-80
2023/03/07 06:00:58;;;;;;;;;;;7.10;89.30;;;5.93;73.90;98605.78;5027105;28;19930;-80
2023/03/07 06:03:25;;;;;;;;;;;7.10;89.30;;;5.89;74.13;98605.41;5030357;28;20782;-79
2023/03/07 06:05:52;;;;;;;;;;;7.10;89.20;;;5.86;74.16;98605.88;5010134;28;19929;-79
2023/03/07 06:08:19;;;;;;;;;;;7.10;89.30;;;5.86;74.63;98605.06;5032371;28;20438;-80
2023/03/07 06:10:49;;;;;;;;;;;7.00;89.40;;;5.91;74.48;98605.19;5034557;28;19926;-79
2023/03/07 06:13:19;;;;;;;;;;;7.00;89.30;;;5.99;73.77;98604.88;5026612;28;19984;-80
2023/03/07 06:15:49;;;;;;;;;;;7.10;89.10;;;5.83;74.53;98595.72;5021560;28;19933;-79
2023/03/07 06:18:16;;;;;;;;;;;7.10;89.20;;;5.90;74.79;98596.44;5023314;28;20416;-78
2023/03/07 06:20:43;;;;;;;;;;;7.10;89.30;;;5.97;74.41;98590.28;5024862;28;19926;-78
2023/03/07 06:23:10;;;;;;;;;;;7.10;89.30;;;5.96;74.27;98594.75;5025715;28;19929;-78
2023/03/07 06:25:37;;;;;;;;;;;7.10;89.30;;;5.90;74.41;98596.44;5025707;28;20409;-78
2023/03/07 06:28:05;;;;;;;;;;;7.10;89.40;;;5.91;73.94;98592.78;5011141;28;19948;-78
2023/03/07 06:30:33;;;;;;;;;;;7.10;89.30;;;5.89;74.19;98586.06;5011206;28;20406;-78
2023/03/07 06:33:00;;;;;;;;;;;7.10;89.30;;;5.90;74.22;98585.88;5036829;28;20008;-78
2023/03/07 06:35:27;;;;;;;;;;;7.10;89.40;;;5.92;74.42;98583.81;5012562;28;19930;-78
2023/03/07 06:37:55;;;;;;;;;;;7.10;89.40;;;6.03;74.21;98589.34;5020927;28;20018;-78
2023/03/07 06:40:22;;;;;;;;;;;7.20;89.30;;;6.01;73.76;98584.31;5014036;28;19929;-78
2023/03/07 06:42:52;;;;;;;;;;;7.10;89.30;;;6.01;73.89;98586.94;5028164;28;19929;-78
2023/03/07 06:45:19;;;;;;;;;;;7.10;89.30;;;5.85;74.75;98583.06;5034395;28;19940;-78
2023/03/07 06:47:47;;;;;;;;;;;7.10;89.30;;;5.85;74.75;98576.97;5028380;28;19933;-78
2023/03/07 06:50:14;;;;;;;;;;;7.00;89.50;;;5.91;74.89;98581.38;5025295;28;19940;-78
2023/03/07 06:52:41;;;;;;;;;;;7.10;89.70;;;5.92;74.77;98572.44;5008120;28;19960;-78
2023/03/07 06:55:09;;;;;;;;;;;7.10;89.70;;;5.83;75.24;98574.56;5009369;28;20296;-78
2023/03/07 06:57:37;;;;;;;;;;;7.00;89.90;;;5.77;75.56;98575.47;5024781;28;20020;-78
2023/03/07 07:00:05;;;;;;;;;;;7.00;90.00;;;5.85;75.38;98577.78;5025941;28;20040;-78
2023/03/07 07:02:33;;;;;;;;;;;7.00;90.10;;;5.89;75.03;98583.44;5025646;28;20016;-78
2023/03/07 07:05:02;;;;;;;;;;;7.00;90.00;;;5.90;74.89;98577.09;5010532;28;19929;-78
2023/03/07 07:07:30;;;;;;;;;;;7.00;90.10;;;5.91;75.00;98576.09;5024387;28;19932;-78
2023/03/07 07:09:58;;;;;;;;;;;7.10;90.00;;;5.88;74.89;98569.41;5024664;28;19929;-78
2023/03/07 07:12:25;;;;;;;;;;;7.10;90.00;;;5.87;75.01;98569.63;5024229;28;19931;-79
2023/03/07 07:14:52;;;;;;;;;;;7.00;89.90;;;5.96;74.98;98572.78;5007484;28;20408;-79
2023/03/07 07:17:19;;;;;;;;;;;7.00;90.00;;;5.92;74.80;98578.53;5006957;28;20377;-78
2023/03/07 07:19:46;;;;;;;;;;;7.10;90.10;;;5.87;74.89;98564.34;5008975;28;19940;-79
2023/03/07 07:22:16;;;;;;;;;;;7.00;90.00;;;5.87;75.48;98567.00;5025157;28;19934;-78
2023/03/07 07:24:44;;;;;;;;;;;7.00;90.20;;;5.79;75.69;98567.31;5024471;28;19936;-78
2023/03/07 07:27:11;;;;;;;;;;;7.00;90.40;;;5.82;75.96;98566.88;5024267;28;19929;-78
2023/03/07 07:29:38;;;;;;;;;;;7.00;90.50;;;5.78;75.62;98561.22;5025149;28;19932;-78
2023/03/07 07:32:07;;;;;;;;;;;7.00;90.40;;;5.85;75.70;98561.91;5025636;28;19931;-78
2023/03/07 07:34:34;;;;;;;;;;;7.00;90.40;;;5.87;76.08;98559.84;5024469;28;19935;-78
2023/03/07 07:37:01;;;;;;;;;;;7.00;90.40;;;5.90;75.88;98566.50;5024718;28;19976;-78
2023/03/07 07:39:29;;;;;;;;;;;7.10;90.40;;;5.89;75.37;98567.56;5025372;28;19932;-78
2023/03/07 07:41:57;;;;;;;;;;;7.00;90.20;;;5.83;75.86;98566.63;5009108;28;19975;-78
2023/03/07 07:44:29;;;;;;;;;;;7.00;90.60;;;5.83;76.06;98569.28;5009529;28;19933;-78
2023/03/07 07:46:58;;;;;;;;;;;7.00;90.70;;;5.84;75.93;98570.09;5020196;28;20679;-78
2023/03/07 07:49:26;;;;;;;;;;;7.00;90.60;;;5.82;76.21;98562.38;5023322;28;19972;-78
2023/03/07 07:51:53;;;;;;;;;;;7.00;90.70;;;5.87;75.87;98562.50;5023022;28;19925;-78
2023/03/07 07:54:20;;;;;;;;;;;7.00;90.70;;;5.89;75.96;98559.63;5007923;28;19932;-78
2023/03/07 07:56:50;;;;;;;;;;;7.00;90.60;;;5.78;76.31;98563.06;5007623;28;19929;-78
2023/03/07 07:59:18;;;;;;;;;;;7.00;90.90;;;5.83;76.08;98556.06;5022204;28;19934;-78
2023/03/07 08:01:45;;;;;;;;;;;7.00;90.80;;;5.75;76.61;98561.66;5006173;28;19926;-78
2023/03/07 08:04:12;;;;;;;;;;;6.90;91.00;;;5.75;76.63;98558.22;5002706;28;19976;-78
2023/03/07 08:06:39;;;;;;;;;;;7.10;91.20;;;5.81;76.60;98559.97;5017543;28;20416;-78
2023/03/07 08:09:06;;;;;;;;;;;6.90;91.00;;;5.81;76.51;98565.25;5002812;28;19963;-78
2023/03/07 08:11:33;;;;;;;;;;;6.90;91.00;;;5.73;76.32;98573.50;5009546;28;19926;-78
2023/03/07 08:14:01;;;;;;;;;;;6.90;91.00;;;5.69;77.12;98563.38;5009808;28;20012;-80
2023/03/07 08:16:29;;;;;;;;;;;6.90;91.40;;;5.80;76.66;98566.28;5008004;28;20521;-79
2023/03/07 08:18:57;;;;;;;;;;;6.90;91.40;;;5.87;76.51;98572.28;5007424;28;19929;-79
2023/03/07 08:21:24;;;;;;;;;;;7.00;91.20;;;5.83;76.01;98571.91;5009635;28;19931;-79
2023/03/07 08:23:53;;;;;;;;;;;7.00;90.90;;;5.81;76.16;98568.72;5010809;28;19944;-79
2023/03/07 08:26:20;;;;;;;;;;;6.90;91.20;;;5.81;76.41;98567.91;5009630;28;19968;-79
2023/03/07 08:28:47;;;;;;;;;;;6.90;91.20;;;5.74;76.34;98567.19;5009906;28;19933;-80
2023/03/07 08:31:18;;;;;;;;;;;6.90;91.20;;;5.63;77.06;98574.06;4993267;28;19929;-80
2023/03/07 08:33:46;;;;;;;;;;;6.90;91.30;;;5.63;77.70;98568.78;5007535;28;19929;-79
2023/03/07 08:36:13;;;;;;;;;;;6.80;91.60;;;5.65;77.95;98570.16;5004658;28;19929;-79
2023/03/07 08:38:40;;;;;;;;;;;6.80;91.60;;;5.69;77.69;98579.25;5010499;28;19976;-79
2023/03/07 08:41:08;;;;;;;;;;;6.90;91.60;;;5.76;76.87;98576.53;5010452;28;19936;-79
2023/03/07 08:43:36;;;;;;;;;;;6.90;91.60;;;5.76;77.05;98567.75;5010048;28;20019;-79
2023/03/07 08:46:04;;;;;;;;;;;6.90;91.80;;;5.73;76.95;98576.16;5008808;28;19936;-79
2023/03/07 08:48:33;;;;;;;;;;;6.80;91.70;;;5.69;77.20;98576.59;5005382;28;19965;-79
2023/03/07 08:51:05;;;;;;;;;;;6.80;91.60;;;5.68;77.75;98571.53;4990728;28;19937;-79
2023/03/07 08:53:32;;;;;;;;;;;6.80;91.80;;;5.67;77.61;98573.38;5008119;28;19929;-79
2023/03/07 08:55:59;;;;;;;;;;;6.90;91.80;;;5.62;77.66;98567.97;5009602;28;19969;-79
2023/03/07 08:58:26;;;;;;;;;;;6.80;91.80;;;5.73;77.75;98579.59;5008316;28;19944;-79
2023/03/07 09:00:53;;;;;;;;;;;6.90;91.80;;;5.70;76.96;98580.03;5008549;28;19926;-79
2023/03/07 09:03:20;;;;;;;;;;;6.80;91.60;;;5.75;77.05;98577.53;5009577;28;20016;-79
2023/03/07 09:05:49;;;;;;;;;;;6.90;91.60;;;5.64;76.97;98580.97;5009501;28;19944;-79
2023/03/07 09:08:16;;;;;;;;;;;6.90;91.50;;;5.61;77.13;98571.66;5025188;28;19925;-79
2023/03/07 09:10:43;;;;;;;;;;;6.80;91.70;;;5.62;77.33;98580.38;5009959;28;20011;-79
2023/03/07 09:13:11;;;;;;;;;;;6.80;91.80;;;5.66;77.57;98586.81;5008298;28;19929;-79
2023/03/07 09:15:38;;;;;;;;;;;6.80;92.00;;;5.73;77.22;98599.97;5007838;28;20580;-79
2023/03/07 09:18:05;;;;;;;;;;;6.80;91.90;;;5.65;76.81;98601.06;5006522;28;19940;-79
2023/03/07 09:20:32;;;;;;;;;;;6.80;91.80;;;5.56;77.78;98613.84;5011609;28;19929;-79
2023/03/07 09:23:01;;;;;;;;;;;6.80;91.80;;;5.67;77.22;98623.63;5009452;28;19933;-79
2023/03/07 09:25:28;;;;;;;;;;;6.80;91.40;;;5.72;75.95;98627.44;5005385;28;19929;-79
2023/03/07 09:27:55;;;;;;;;;;;6.80;90.60;;;5.67;74.74;98626.28;5005213;28;20458;-79
2023/03/07 09:30:24;;;;;;;;;;;6.80;89.40;;;5.68;74.01;98630.53;5008809;28;20031;-79
2023/03/07 09:32:51;;;;;;;;;;;6.80;89.50;;;5.74;73.88;98620.09;5009864;28;20003;-79
2023/03/07 09:35:18;;;;;;;;;;;6.80;89.30;;;5.75;73.84;98622.50;5023662;28;19930;-79
2023/03/07 09:37:45;;;;;;;;;;;6.80;88.90;;;5.74;73.42;98628.00;5025858;28;19930;-79
2023/03/07 09:40:17;;;;;;;;;;;6.80;88.70;;;5.76;73.46;98620.66;5009859;28;20031;-79
2023/03/07 09:42:54;;;;;;;;;;;6.90;89.10;;;5.76;73.40;98612.72;5006494;28;19931;-79
2023/03/07 09:45:29;;;;;;;;;;;6.90;88.90;;;5.79;73.04;98621.00;5025583;28;20404;-79
2023/03/07 09:48:20;;;;;;;;;;;6.90;88.70;;;5.84;72.62;98629.06;5037823;22;19929;-78
2023/03/07 09:50:52;;;;;;;;;;;6.90;88.30;;;5.86;72.54;98620.94;5040907;28;19939;-77
2023/03/07 09:53:24;;;;;;;;;;;6.90;88.40;;;5.92;72.61;98623.50;5053124;28;20031;-77
2023/03/07 09:55:54;;;;;;;;;;;7.00;88.30;;;5.92;72.00;98630.63;5052135;28;19928;-77
2023/03/07 09:58:23;;;;;;;;;;;7.00;88.10;;;5.91;72.24;98631.66;5053008;28;19931;-77
2023/03/07 10:00:55;;;;;;;;;;;7.00;88.00;;;5.92;71.94;98649.16;5051715;28;20019;-77
2023/03/07 10:03:29;;;;;;;;;;;7.00;87.90;;;5.93;71.35;98640.97;5046745;28;19928;-77
2023/03/07 10:05:59;;;;;;;;;;;7.00;87.70;;;5.84;71.78;98644.16;5050876;28;19925;-77
2023/03/07 10:08:30;;;;;;;;;;;7.00;87.50;;;5.86;71.37;98653.47;5052791;28;20019;-78
2023/03/07 10:11:03;;;;;;;;;;;7.10;87.30;;;5.75;71.27;98646.28;5052054;28;19925;-78
2023/03/07 10:13:40;;;;;;;;;;;7.00;86.90;;;5.72;70.94;98649.41;5050053;28;19939;-77
2023/03/07 10:16:14;;;;;;;;;;;6.90;86.80;;;5.67;71.54;98662.50;5048928;28;20017;-78
2023/03/07 10:18:50;;;;;;;;;;;6.90;87.30;;;5.73;71.64;98664.25;5049674;28;19925;-78
2023/03/07 10:21:23;;;;;;;;;;;6.90;87.30;;;5.74;70.93;98663.19;5051705;28;19994;-77
2023/03/07 10:24:10;;;;;;;;;;;6.90;87.10;;;5.78;70.80;98655.63;5046254;28;19936;-77
2023/03/07 10:26:42;;;;;;;;;;;6.90;87.10;;;5.82;71.27;98673.47;5048375;28;19924;-77
2023/03/07 10:29:13;;;;;;;;;;;6.90;87.30;;;5.82;71.32;98662.09;5035555;28;20373;-78
2023/03/07 10:31:42;;;;;;;;;;;6.90;87.30;;;5.87;71.52;98664.88;5052493;28;19928;-77
2023/03/07 10:34:15;;;;;;;;;;;6.90;87.50;;;5.90;71.20;98659.94;5050572;28;19971;-78
2023/03/07 10:36:45;;;;;;;;;;;7.00;87.20;;;5.79;70.26;98665.19;5037407;28;20413;-78
2023/03/07 10:39:23;;;;;;;;;;;6.90;86.40;;;5.81;70.39;98665.78;5050330;28;19933;-77
2023/03/07 10:41:51;;;;;;;;;;;6.90;86.50;;;5.80;70.16;98669.44;5051944;28;19924;-78
2023/03/07 10:44:20;;;;;;;;;;;6.90;86.50;;;5.82;70.32;98667.38;5048862;28;20305;-78
2023/03/07 10:46:51;;;;;;;;;;;7.00;86.50;;;5.87;70.22;98672.81;5049675;28;19931;-78
2023/03/07 10:49:22;;;;;;;;;;;7.00;86.20;;;5.86;69.59;98666.72;5048899;28;19954;-77
2023/03/07 10:51:56;;;;;;;;;;;7.00;85.80;;;5.87;69.67;98675.44;5038953;28;19929;-77
2023/03/07 10:54:27;;;;;;;;;;;7.00;85.80;;;5.86;70.02;98679.94;5048688;28;19935;-78
2023/03/07 10:57:08;;;;;;;;;;;7.00;86.10;;;5.85;70.07;98677.50;5050135;28;20022;-77
2023/03/07 10:59:36;;;;;;;;;;;7.00;86.20;;;5.82;70.22;98672.69;5037064;28;20426;-78
2023/03/07 11:02:24;;;;;;;;;;;7.00;86.10;;;5.86;70.06;98674.66;5046014;28;20344;-78
2023/03/07 11:04:52;;;;;;;;;;;7.00;86.10;;;5.86;69.83;98676.50;5051884;28;19924;-77
2023/03/07 11:07:27;;;;;;;;;;;7.00;85.90;;;5.83;69.32;98684.88;5049551;28;20233;-77
2023/03/07 11:09:54;;;;;;;;;;;7.00;85.60;;;5.80;69.69;98682.66;5039567;28;19932;-78
2023/03/07 11:12:24;;;;;;;;;;;7.00;85.90;;;5.79;69.59;98678.41;5051117;28;20015;-78
2023/03/07 11:14:53;;;;;;;;;;;6.90;85.80;;;5.81;69.27;98681.66;5042242;28;19987;-78
2023/03/07 11:17:21;;;;;;;;;;;7.00;85.70;;;5.82;69.05;98678.78;5048465;28;20020;-78
2023/03/07 11:19:51;;;;;;;;;;;6.90;85.40;;;5.81;68.94;98677.16;5051786;28;20290;-77
2023/03/07 11:22:24;;;;;;;;;;;6.90;85.40;;;5.84;68.88;98681.19;5039161;28;19929;-78
2023/03/07 11:24:57;;;;;;;;;;;7.00;85.40;;;5.90;69.03;98680.28;5045947;28;19929;-78
2023/03/07 11:27:38;;;;;;;;;;;6.80;85.20;;;5.90;68.97;98680.28;5047195;28;19933;-77
2023/03/07 11:30:22;;;;;;;;;;;7.00;85.10;;;5.88;68.79;98679.69;5040438;28;19935;-78
2023/03/07 11:32:59;;;;;;;;;;;7.00;85.30;;;5.89;69.07;98689.25;5049638;28;20035;-78
2023/03/07 11:35:34;;;;;;;;;;;7.00;85.40;;;5.86;69.23;98685.22;5050949;28;20011;-78
2023/03/07 11:38:07;;;;;;;;;;;7.00;85.70;;;5.87;68.90;98676.25;5051058;28;19935;-78
2023/03/07 11:40:37;;;;;;;;;;;7.00;85.40;;;5.85;68.83;98694.16;5050906;28;19943;-78
2023/03/07 11:43:16;;;;;;;;;;;7.00;85.10;;;5.83;68.93;98684.88;5049986;28;20404;-77